KRHI

Rhinelander-Oneida County Airport

Rhinelander, Wisconsin, USA
METAR KRHI 100653Z AUTO 24004KT 7SM CLR M09/M13 A3015 RMK AO2 SLP235 I1000 T10941128 $
Observed Flight Rules
Dec-10 @ 06:53 UTC (28 minutes ago) Visual Flight Rules
Wind Visibility Clouds
240° at 4 knots 7 miles
  • Clear skies
Temperatures Readings
Current -9°C / 16°F
Dewpoint -13°C / 9°F
Humidity 73%
Altimeter 30.15" Hg
Pressure 1023.5 hPa
Elevation 485
METAR KRHI 100653Z AUTO 24004KT 7SM CLR M09/M13 A3015 RMK AO2 SLP235 I1000 T10941128 $
Observed Flight Rules
Dec-10 @ 06:53 UTC
(28 minutes ago)
VFR
Wind Visibility
240° at 4 knots 7 miles
Clouds
  • Clear skies
Temperature Dewpoint
-9°C / 16°F -13°C / 9°F
Humidity Altimeter Pressure
73% 30.15" Hg 1023.5 hPa